Ocean Drive Beach, South Carolina
Current Conditions -  °F | °C
As of 7:53 AM on Thursday 18 Dec 2014 (Local Time) from KCRE Reporting Station
Clear Clear  
Wind Chill: 38°   Ceiling: Unl
Heat Index: 42°   Visibility: 10mi
Dew Point: 39°   Wind: 6mph
Humidity: 89%   Direction: 30°NNE
Pressure: 30.15"   Gusts: NA
Location:  33.8371°N, 78.6471°W
Report Text: KCRE 181253Z 03005KT 10SM CLR 06/04 A3015 RMK AO1 SLP209 T00560039
Loading
Personal Weather Stations






























Interactive Weather Map New forecast layout! Learn more

10-Day Weather Forecast

Advertisements
Track Severe Weather on mobile